sensor_id;sensor_type;location;lat;lon;timestamp;P1;durP1;ratioP1;P2;durP2;ratioP2
17794;SDS011;9021;50.882;4.326;2023-04-01T00:03:25;4.38;;;1.38;;
17794;SDS011;9021;50.882;4.326;2023-04-01T00:05:53;10.93;;;1.95;;
17794;SDS011;9021;50.882;4.326;2023-04-01T00:08:19;5.57;;;1.77;;
17794;SDS011;9021;50.882;4.326;2023-04-01T00:10:45;9.82;;;1.80;;
17794;SDS011;9021;50.882;4.326;2023-04-01T00:13:11;5.22;;;1.60;;
17794;SDS011;9021;50.882;4.326;2023-04-01T00:15:36;9.93;;;2.10;;
17794;SDS011;9021;50.882;4.326;2023-04-01T00:18:02;5.95;;;1.42;;
17794;SDS011;9021;50.882;4.326;2023-04-01T00:20:28;5.57;;;1.20;;
17794;SDS011;9021;50.882;4.326;2023-04-01T00:22:54;5.78;;;1.17;;
17794;SDS011;9021;50.882;4.326;2023-04-01T00:25:20;5.32;;;1.30;;
17794;SDS011;9021;50.882;4.326;2023-04-01T00:27:45;6.75;;;1.20;;
17794;SDS011;9021;50.882;4.326;2023-04-01T00:30:11;3.15;;;1.30;;
17794;SDS011;9021;50.882;4.326;2023-04-01T00:32:37;6.68;;;1.50;;
17794;SDS011;9021;50.882;4.326;2023-04-01T00:35:03;4.28;;;1.25;;
17794;SDS011;9021;50.882;4.326;2023-04-01T00:37:29;5.97;;;1.20;;
17794;SDS011;9021;50.882;4.326;2023-04-01T00:39:55;4.00;;;1.13;;
17794;SDS011;9021;50.882;4.326;2023-04-01T00:42:21;5.45;;;1.30;;
17794;SDS011;9021;50.882;4.326;2023-04-01T00:44:49;3.70;;;1.17;;
17794;SDS011;9021;50.882;4.326;2023-04-01T00:47:17;2.67;;;0.88;;
17794;SDS011;9021;50.882;4.326;2023-04-01T00:49:45;5.20;;;1.00;;
17794;SDS011;9021;50.882;4.326;2023-04-01T00:52:14;3.80;;;1.10;;
17794;SDS011;9021;50.882;4.326;2023-04-01T00:54:43;4.75;;;1.13;;
17794;SDS011;9021;50.882;4.326;2023-04-01T00:57:15;7.43;;;1.27;;
17794;SDS011;9021;50.882;4.326;2023-04-01T00:59:44;2.83;;;0.95;;
17794;SDS011;9021;50.882;4.326;2023-04-01T01:02:13;6.63;;;1.20;;
17794;SDS011;9021;50.882;4.326;2023-04-01T01:04:40;2.75;;;1.02;;
17794;SDS011;9021;50.882;4.326;2023-04-01T01:07:22;2.97;;;0.90;;
17794;SDS011;9021;50.882;4.326;2023-04-01T01:12:31;4.75;;;0.80;;
17794;SDS011;9021;50.882;4.326;2023-04-01T01:20:09;6.50;;;0.80;;
17794;SDS011;9021;50.882;4.326;2023-04-01T01:31:15;4.35;;;1.38;;
17794;SDS011;9021;50.882;4.326;2023-04-01T01:36:25;3.67;;;1.75;;
17794;SDS011;9021;50.882;4.326;2023-04-01T01:38:53;2.45;;;1.23;;
17794;SDS011;9021;50.882;4.326;2023-04-01T01:41:20;4.68;;;1.70;;
17794;SDS011;9021;50.882;4.326;2023-04-01T01:43:49;4.10;;;1.77;;
17794;SDS011;9021;50.882;4.326;2023-04-01T01:46:21;7.18;;;2.30;;
17794;SDS011;9021;50.882;4.326;2023-04-01T01:48:49;5.53;;;2.45;;
17794;SDS011;9021;50.882;4.326;2023-04-01T01:51:17;6.97;;;2.65;;
17794;SDS011;9021;50.882;4.326;2023-04-01T01:53:44;7.22;;;2.05;;
17794;SDS011;9021;50.882;4.326;2023-04-01T01:56:10;7.47;;;2.70;;
17794;SDS011;9021;50.882;4.326;2023-04-01T01:59:10;7.05;;;3.05;;
17794;SDS011;9021;50.882;4.326;2023-04-01T02:01:32;8.90;;;3.38;;
17794;SDS011;9021;50.882;4.326;2023-04-01T02:04:02;6.35;;;3.47;;
17794;SDS011;9021;50.882;4.326;2023-04-01T02:06:29;7.57;;;3.63;;
17794;SDS011;9021;50.882;4.326;2023-04-01T02:11:48;5.60;;;3.72;;
17794;SDS011;9021;50.882;4.326;2023-04-01T02:17:22;6.32;;;2.60;;
17794;SDS011;9021;50.882;4.326;2023-04-01T02:19:58;8.38;;;2.40;;
17794;SDS011;9021;50.882;4.326;2023-04-01T02:22:31;10.05;;;2.70;;
17794;SDS011;9021;50.882;4.326;2023-04-01T02:25:07;5.90;;;2.38;;
17794;SDS011;9021;50.882;4.326;2023-04-01T02:27:35;5.93;;;2.67;;
17794;SDS011;9021;50.882;4.326;2023-04-01T02:30:02;5.95;;;2.92;;
17794;SDS011;9021;50.882;4.326;2023-04-01T02:34:54;7.00;;;2.88;;
17794;SDS011;9021;50.882;4.326;2023-04-01T02:37:21;8.25;;;2.38;;
17794;SDS011;9021;50.882;4.326;2023-04-01T02:39:47;7.30;;;2.63;;
17794;SDS011;9021;50.882;4.326;2023-04-01T02:42:13;9.52;;;2.88;;
17794;SDS011;9021;50.882;4.326;2023-04-01T02:47:05;7.45;;;2.67;;
17794;SDS011;9021;50.882;4.326;2023-04-01T02:49:31;12.05;;;2.60;;
17794;SDS011;9021;50.882;4.326;2023-04-01T02:51:56;7.53;;;2.22;;
17794;SDS011;9021;50.882;4.326;2023-04-01T02:54:22;8.80;;;2.72;;
17794;SDS011;9021;50.882;4.326;2023-04-01T02:56:47;7.90;;;2.75;;
17794;SDS011;9021;50.882;4.326;2023-04-01T02:59:13;4.95;;;2.33;;
17794;SDS011;9021;50.882;4.326;2023-04-01T03:01:39;4.80;;;1.80;;
17794;SDS011;9021;50.882;4.326;2023-04-01T03:04:04;8.65;;;2.50;;
17794;SDS011;9021;50.882;4.326;2023-04-01T03:06:30;10.13;;;2.53;;
17794;SDS011;9021;50.882;4.326;2023-04-01T03:08:56;6.05;;;2.05;;
17794;SDS011;9021;50.882;4.326;2023-04-01T03:11:21;9.27;;;2.47;;
17794;SDS011;9021;50.882;4.326;2023-04-01T03:13:47;8.45;;;2.50;;
17794;SDS011;9021;50.882;4.326;2023-04-01T03:16:13;5.72;;;2.45;;
17794;SDS011;9021;50.882;4.326;2023-04-01T03:18:39;9.32;;;3.00;;
17794;SDS011;9021;50.882;4.326;2023-04-01T03:21:12;6.88;;;3.30;;
17794;SDS011;9021;50.882;4.326;2023-04-01T03:23:39;9.85;;;3.85;;
17794;SDS011;9021;50.882;4.326;2023-04-01T03:26:05;10.45;;;4.70;;
17794;SDS011;9021;50.882;4.326;2023-04-01T03:28:30;8.68;;;4.43;;
17794;SDS011;9021;50.882;4.326;2023-04-01T03:30:56;10.77;;;4.50;;
17794;SDS011;9021;50.882;4.326;2023-04-01T03:33:21;11.88;;;4.80;;
17794;SDS011;9021;50.882;4.326;2023-04-01T03:35:47;11.40;;;4.57;;
17794;SDS011;9021;50.882;4.326;2023-04-01T03:38:13;14.18;;;4.93;;
17794;SDS011;9021;50.882;4.326;2023-04-01T03:40:42;10.82;;;4.35;;
17794;SDS011;9021;50.882;4.326;2023-04-01T03:43:08;8.77;;;4.80;;
17794;SDS011;9021;50.882;4.326;2023-04-01T03:45:34;10.35;;;4.57;;
17794;SDS011;9021;50.882;4.326;2023-04-01T03:48:00;9.27;;;4.68;;
17794;SDS011;9021;50.882;4.326;2023-04-01T03:50:26;9.70;;;4.88;;
17794;SDS011;9021;50.882;4.326;2023-04-01T03:52:52;18.92;;;5.93;;
17794;SDS011;9021;50.882;4.326;2023-04-01T03:55:18;9.95;;;5.20;;
17794;SDS011;9021;50.882;4.326;2023-04-01T03:57:43;13.65;;;5.60;;
17794;SDS011;9021;50.882;4.326;2023-04-01T04:00:09;12.13;;;4.85;;
17794;SDS011;9021;50.882;4.326;2023-04-01T04:02:35;10.80;;;4.68;;
17794;SDS011;9021;50.882;4.326;2023-04-01T04:05:01;10.32;;;4.50;;
17794;SDS011;9021;50.882;4.326;2023-04-01T04:07:27;8.18;;;4.65;;
17794;SDS011;9021;50.882;4.326;2023-04-01T04:09:53;6.93;;;4.50;;
17794;SDS011;9021;50.882;4.326;2023-04-01T04:12:18;11.48;;;5.20;;
17794;SDS011;9021;50.882;4.326;2023-04-01T04:14:44;14.05;;;5.53;;
17794;SDS011;9021;50.882;4.326;2023-04-01T04:17:10;11.57;;;4.50;;
17794;SDS011;9021;50.882;4.326;2023-04-01T04:19:41;9.45;;;4.18;;
17794;SDS011;9021;50.882;4.326;2023-04-01T04:22:07;6.55;;;3.97;;
17794;SDS011;9021;50.882;4.326;2023-04-01T04:24:36;9.80;;;4.63;;
17794;SDS011;9021;50.882;4.326;2023-04-01T04:27:02;9.80;;;4.13;;
17794;SDS011;9021;50.882;4.326;2023-04-01T04:29:28;11.25;;;3.83;;
17794;SDS011;9021;50.882;4.326;2023-04-01T04:31:54;9.57;;;3.97;;
17794;SDS011;9021;50.882;4.326;2023-04-01T04:34:20;9.60;;;3.88;;
17794;SDS011;9021;50.882;4.326;2023-04-01T04:36:47;5.70;;;3.50;;
17794;SDS011;9021;50.882;4.326;2023-04-01T04:39:13;4.80;;;3.20;;
17794;SDS011;9021;50.882;4.326;2023-04-01T04:41:39;5.90;;;2.60;;
17794;SDS011;9021;50.882;4.326;2023-04-01T04:44:05;4.65;;;2.78;;
17794;SDS011;9021;50.882;4.326;2023-04-01T04:46:31;6.82;;;3.00;;
17794;SDS011;9021;50.882;4.326;2023-04-01T04:48:56;5.63;;;2.40;;
17794;SDS011;9021;50.882;4.326;2023-04-01T04:51:22;5.18;;;2.80;;
17794;SDS011;9021;50.882;4.326;2023-04-01T04:53:48;4.40;;;2.30;;
17794;SDS011;9021;50.882;4.326;2023-04-01T04:58:46;5.75;;;2.45;;
17794;SDS011;9021;50.882;4.326;2023-04-01T05:01:13;2.72;;;2.20;;
17794;SDS011;9021;50.882;4.326;2023-04-01T05:03:40;3.28;;;2.42;;
17794;SDS011;9021;50.882;4.326;2023-04-01T05:06:07;3.30;;;2.10;;
17794;SDS011;9021;50.882;4.326;2023-04-01T05:08:33;2.92;;;2.03;;
17794;SDS011;9021;50.882;4.326;2023-04-01T05:13:26;3.50;;;2.53;;
17794;SDS011;9021;50.882;4.326;2023-04-01T05:15:51;4.72;;;2.53;;
17794;SDS011;9021;50.882;4.326;2023-04-01T05:18:17;7.10;;;3.03;;
17794;SDS011;9021;50.882;4.326;2023-04-01T05:20:46;4.05;;;3.30;;
17794;SDS011;9021;50.882;4.326;2023-04-01T05:23:13;4.93;;;3.17;;
17794;SDS011;9021;50.882;4.326;2023-04-01T05:25:39;3.95;;;3.47;;
17794;SDS011;9021;50.882;4.326;2023-04-01T05:28:05;6.18;;;3.88;;
17794;SDS011;9021;50.882;4.326;2023-04-01T05:30:30;7.55;;;3.78;;
17794;SDS011;9021;50.882;4.326;2023-04-01T05:32:56;5.75;;;3.90;;
17794;SDS011;9021;50.882;4.326;2023-04-01T05:35:22;7.07;;;3.92;;
17794;SDS011;9021;50.882;4.326;2023-04-01T05:37:48;6.95;;;4.38;;
17794;SDS011;9021;50.882;4.326;2023-04-01T05:40:14;6.40;;;4.70;;
17794;SDS011;9021;50.882;4.326;2023-04-01T05:42:39;8.90;;;4.65;;
17794;SDS011;9021;50.882;4.326;2023-04-01T05:45:05;9.10;;;5.13;;
17794;SDS011;9021;50.882;4.326;2023-04-01T05:49:57;9.80;;;5.53;;
17794;SDS011;9021;50.882;4.326;2023-04-01T05:52:22;8.95;;;5.97;;
17794;SDS011;9021;50.882;4.326;2023-04-01T05:54:48;9.43;;;6.07;;
17794;SDS011;9021;50.882;4.326;2023-04-01T05:57:14;8.52;;;5.60;;
17794;SDS011;9021;50.882;4.326;2023-04-01T05:59:39;9.43;;;6.05;;
17794;SDS011;9021;50.882;4.326;2023-04-01T06:02:05;11.90;;;6.22;;
17794;SDS011;9021;50.882;4.326;2023-04-01T06:04:37;13.00;;;6.72;;
17794;SDS011;9021;50.882;4.326;2023-04-01T06:07:13;11.98;;;6.22;;
17794;SDS011;9021;50.882;4.326;2023-04-01T06:12:10;10.15;;;6.05;;
17794;SDS011;9021;50.882;4.326;2023-04-01T06:23:20;11.18;;;7.10;;
17794;SDS011;9021;50.882;4.326;2023-04-01T06:28:59;10.75;;;6.90;;
17794;SDS011;9021;50.882;4.326;2023-04-01T06:45:38;10.00;;;6.30;;
17794;SDS011;9021;50.882;4.326;2023-04-01T06:54:12;12.20;;;6.35;;
17794;SDS011;9021;50.882;4.326;2023-04-01T06:56:45;8.93;;;6.05;;
17794;SDS011;9021;50.882;4.326;2023-04-01T07:01:55;10.32;;;5.65;;
17794;SDS011;9021;50.882;4.326;2023-04-01T07:04:34;10.88;;;5.93;;
17794;SDS011;9021;50.882;4.326;2023-04-01T07:07:04;9.70;;;5.70;;
17794;SDS011;9021;50.882;4.326;2023-04-01T07:09:39;8.55;;;5.40;;
17794;SDS011;9021;50.882;4.326;2023-04-01T07:12:15;7.55;;;5.43;;
17794;SDS011;9021;50.882;4.326;2023-04-01T07:14:53;5.82;;;3.50;;
17794;SDS011;9021;50.882;4.326;2023-04-01T07:17:22;4.05;;;2.67;;
17794;SDS011;9021;50.882;4.326;2023-04-01T07:20:00;3.35;;;2.63;;
17794;SDS011;9021;50.882;4.326;2023-04-01T07:22:31;5.32;;;2.50;;
17794;SDS011;9021;50.882;4.326;2023-04-01T07:25:07;3.95;;;1.80;;
17794;SDS011;9021;50.882;4.326;2023-04-01T07:27:38;3.15;;;1.85;;
17794;SDS011;9021;50.882;4.326;2023-04-01T07:30:06;2.28;;;1.60;;
17794;SDS011;9021;50.882;4.326;2023-04-01T07:32:42;1.65;;;1.10;;
17794;SDS011;9021;50.882;4.326;2023-04-01T07:41:16;0.82;;;0.60;;
17794;SDS011;9021;50.882;4.326;2023-04-01T07:46:49;1.48;;;0.70;;
17794;SDS011;9021;50.882;4.326;2023-04-01T07:49:32;1.30;;;0.60;;
17794;SDS011;9021;50.882;4.326;2023-04-01T07:52:29;2.25;;;1.10;;
17794;SDS011;9021;50.882;4.326;2023-04-01T07:55:16;2.40;;;1.67;;
17794;SDS011;9021;50.882;4.326;2023-04-01T07:57:53;3.78;;;1.45;;
17794;SDS011;9021;50.882;4.326;2023-04-01T08:00:48;2.60;;;1.58;;
17794;SDS011;9021;50.882;4.326;2023-04-01T08:08:59;2.15;;;0.95;;
17794;SDS011;9021;50.882;4.326;2023-04-01T08:23:11;2.03;;;0.90;;
17794;SDS011;9021;50.882;4.326;2023-04-01T08:25:55;2.50;;;0.88;;
17794;SDS011;9021;50.882;4.326;2023-04-01T08:28:29;1.73;;;1.02;;
17794;SDS011;9021;50.882;4.326;2023-04-01T08:31:17;1.00;;;0.68;;
17794;SDS011;9021;50.882;4.326;2023-04-01T08:33:50;1.20;;;0.88;;
17794;SDS011;9021;50.882;4.326;2023-04-01T08:36:24;1.48;;;0.80;;
17794;SDS011;9021;50.882;4.326;2023-04-01T08:52:24;2.05;;;0.98;;
17794;SDS011;9021;50.882;4.326;2023-04-01T09:00:46;1.48;;;0.80;;
17794;SDS011;9021;50.882;4.326;2023-04-01T09:11:56;1.75;;;0.80;;
17794;SDS011;9021;50.882;4.326;2023-04-01T09:20:39;2.00;;;1.50;;
17794;SDS011;9021;50.882;4.326;2023-04-01T09:48:39;3.22;;;1.38;;
17794;SDS011;9021;50.882;4.326;2023-04-01T09:51:28;2.08;;;1.55;;
17794;SDS011;9021;50.882;4.326;2023-04-01T09:56:52;2.53;;;1.25;;
17794;SDS011;9021;50.882;4.326;2023-04-01T10:25:49;1.48;;;0.90;;
17794;SDS011;9021;50.882;4.326;2023-04-01T10:49:21;1.10;;;0.40;;
17794;SDS011;9021;50.882;4.326;2023-04-01T11:07:18;0.70;;;0.32;;
17794;SDS011;9021;50.882;4.326;2023-04-01T11:17:54;0.25;;;0.20;;
17794;SDS011;9021;50.882;4.326;2023-04-01T11:25:49;1.95;;;0.65;;
17794;SDS011;9021;50.882;4.326;2023-04-01T11:33:53;1.38;;;0.68;;
17794;SDS011;9021;50.882;4.326;2023-04-01T11:59:03;1.55;;;0.70;;
17794;SDS011;9021;50.882;4.326;2023-04-01T12:02:09;0.95;;;0.50;;
17794;SDS011;9021;50.882;4.326;2023-04-01T12:04:54;2.30;;;0.63;;
17794;SDS011;9021;50.882;4.326;2023-04-01T12:15:30;2.78;;;0.77;;
17794;SDS011;9021;50.882;4.326;2023-04-01T12:18:11;1.45;;;0.90;;
17794;SDS011;9021;50.882;4.326;2023-04-01T12:26:15;3.53;;;1.10;;
17794;SDS011;9021;50.882;4.326;2023-04-01T12:39:29;1.27;;;0.90;;
17794;SDS011;9021;50.882;4.326;2023-04-01T12:48:06;1.17;;;0.50;;
17794;SDS011;9021;50.882;4.326;2023-04-01T12:51:23;1.10;;;0.60;;
17794;SDS011;9021;50.882;4.326;2023-04-01T13:07:23;1.42;;;0.75;;
17794;SDS011;9021;50.882;4.326;2023-04-01T13:10:20;1.13;;;0.70;;
17794;SDS011;9021;50.882;4.326;2023-04-01T13:26:27;0.90;;;0.60;;
17794;SDS011;9021;50.882;4.326;2023-04-01T13:34:15;0.95;;;0.50;;
17794;SDS011;9021;50.882;4.326;2023-04-01T13:42:41;1.05;;;0.60;;
17794;SDS011;9021;50.882;4.326;2023-04-01T13:45:47;1.38;;;0.77;;
17794;SDS011;9021;50.882;4.326;2023-04-01T13:48:29;0.73;;;0.50;;
17794;SDS011;9021;50.882;4.326;2023-04-01T13:54:03;1.05;;;0.50;;
17794;SDS011;9021;50.882;4.326;2023-04-01T14:05:29;1.05;;;0.70;;
17794;SDS011;9021;50.882;4.326;2023-04-01T14:08:07;2.05;;;1.10;;
17794;SDS011;9021;50.882;4.326;2023-04-01T14:49:04;0.65;;;0.55;;
17794;SDS011;9021;50.882;4.326;2023-04-01T14:51:55;2.90;;;0.77;;
17794;SDS011;9021;50.882;4.326;2023-04-01T14:54:46;1.05;;;0.60;;
17794;SDS011;9021;50.882;4.326;2023-04-01T14:57:15;2.25;;;0.60;;
17794;SDS011;9021;50.882;4.326;2023-04-01T15:02:56;3.13;;;0.70;;
17794;SDS011;9021;50.882;4.326;2023-04-01T15:05:47;3.58;;;0.80;;
17794;SDS011;9021;50.882;4.326;2023-04-01T15:11:04;4.07;;;0.82;;
17794;SDS011;9021;50.882;4.326;2023-04-01T15:14:11;3.38;;;0.45;;
17794;SDS011;9021;50.882;4.326;2023-04-01T15:20:00;1.33;;;0.65;;
17794;SDS011;9021;50.882;4.326;2023-04-01T15:22:58;2.53;;;0.98;;
17794;SDS011;9021;50.882;4.326;2023-04-01T15:27:55;0.82;;;0.55;;
17794;SDS011;9021;50.882;4.326;2023-04-01T15:35:57;1.95;;;0.60;;
17794;SDS011;9021;50.882;4.326;2023-04-01T15:38:52;0.90;;;0.40;;
17794;SDS011;9021;50.882;4.326;2023-04-01T15:52:36;0.68;;;0.50;;
17794;SDS011;9021;50.882;4.326;2023-04-01T15:55:26;0.60;;;0.47;;
17794;SDS011;9021;50.882;4.326;2023-04-01T16:06:14;2.85;;;0.80;;
17794;SDS011;9021;50.882;4.326;2023-04-01T16:09:03;0.63;;;0.45;;
17794;SDS011;9021;50.882;4.326;2023-04-01T16:20:19;1.50;;;0.50;;
17794;SDS011;9021;50.882;4.326;2023-04-01T16:23:02;2.55;;;0.77;;
17794;SDS011;9021;50.882;4.326;2023-04-01T16:25:44;1.15;;;0.75;;
17794;SDS011;9021;50.882;4.326;2023-04-01T16:36:47;1.80;;;0.80;;
17794;SDS011;9021;50.882;4.326;2023-04-01T16:39:42;2.15;;;0.50;;
17794;SDS011;9021;50.882;4.326;2023-04-01T16:42:31;0.90;;;0.70;;
17794;SDS011;9021;50.882;4.326;2023-04-01T16:45:43;1.25;;;0.68;;
17794;SDS011;9021;50.882;4.326;2023-04-01T16:48:15;1.85;;;0.70;;
17794;SDS011;9021;50.882;4.326;2023-04-01T16:50:54;3.17;;;1.08;;
17794;SDS011;9021;50.882;4.326;2023-04-01T16:56:23;1.73;;;0.80;;
17794;SDS011;9021;50.882;4.326;2023-04-01T17:01:40;2.33;;;0.70;;
17794;SDS011;9021;50.882;4.326;2023-04-01T17:04:34;1.27;;;0.70;;
17794;SDS011;9021;50.882;4.326;2023-04-01T17:21:56;1.92;;;0.88;;
17794;SDS011;9021;50.882;4.326;2023-04-01T17:24:39;1.30;;;0.82;;
17794;SDS011;9021;50.882;4.326;2023-04-01T17:44:07;1.65;;;0.88;;
17794;SDS011;9021;50.882;4.326;2023-04-01T17:47:07;3.15;;;1.00;;
17794;SDS011;9021;50.882;4.326;2023-04-01T17:54:59;1.58;;;0.75;;
17794;SDS011;9021;50.882;4.326;2023-04-01T17:58:00;1.38;;;0.98;;
17794;SDS011;9021;50.882;4.326;2023-04-01T18:06:03;2.53;;;1.40;;
17794;SDS011;9021;50.882;4.326;2023-04-01T18:11:50;2.42;;;1.63;;
17794;SDS011;9021;50.882;4.326;2023-04-01T18:17:55;2.25;;;1.92;;
17794;SDS011;9021;50.882;4.326;2023-04-01T18:21:18;2.78;;;2.28;;
17794;SDS011;9021;50.882;4.326;2023-04-01T18:26:43;2.97;;;2.75;;
17794;SDS011;9021;50.882;4.326;2023-04-01T18:32:43;2.97;;;2.70;;
17794;SDS011;9021;50.882;4.326;2023-04-01T18:38:03;3.10;;;2.80;;
17794;SDS011;9021;50.882;4.326;2023-04-01T18:45:46;3.85;;;3.25;;
17794;SDS011;9021;50.882;4.326;2023-04-01T18:54:13;6.72;;;3.78;;
17794;SDS011;9021;50.882;4.326;2023-04-01T18:57:27;5.90;;;4.50;;
17794;SDS011;9021;50.882;4.326;2023-04-01T18:59:53;7.45;;;5.63;;
17794;SDS011;9021;50.882;4.326;2023-04-01T19:02:43;6.00;;;5.40;;
17794;SDS011;9021;50.882;4.326;2023-04-01T19:05:59;7.25;;;6.47;;
17794;SDS011;9021;50.882;4.326;2023-04-01T19:08:24;9.55;;;8.18;;
17794;SDS011;9021;50.882;4.326;2023-04-01T19:16:34;12.25;;;9.88;;
17794;SDS011;9021;50.882;4.326;2023-04-01T19:27:17;14.60;;;12.00;;
17794;SDS011;9021;50.882;4.326;2023-04-01T19:37:58;18.02;;;14.05;;
17794;SDS011;9021;50.882;4.326;2023-04-01T19:41:03;20.67;;;14.52;;
17794;SDS011;9021;50.882;4.326;2023-04-01T19:57:44;22.83;;;15.93;;
17794;SDS011;9021;50.882;4.326;2023-04-01T20:00:22;23.85;;;15.65;;
17794;SDS011;9021;50.882;4.326;2023-04-01T20:06:10;21.85;;;14.35;;
17794;SDS011;9021;50.882;4.326;2023-04-01T20:09:03;21.55;;;14.98;;
17794;SDS011;9021;50.882;4.326;2023-04-01T20:28:04;20.65;;;13.35;;
17794;SDS011;9021;50.882;4.326;2023-04-01T20:44:37;23.67;;;13.25;;
17794;SDS011;9021;50.882;4.326;2023-04-01T20:52:41;24.15;;;12.65;;
17794;SDS011;9021;50.882;4.326;2023-04-01T20:55:19;20.30;;;13.82;;
17794;SDS011;9021;50.882;4.326;2023-04-01T21:25:43;27.67;;;16.05;;
17794;SDS011;9021;50.882;4.326;2023-04-01T21:28:30;25.65;;;16.48;;
17794;SDS011;9021;50.882;4.326;2023-04-01T21:31:15;26.85;;;15.93;;
17794;SDS011;9021;50.882;4.326;2023-04-01T22:04:58;17.80;;;13.67;;
17794;SDS011;9021;50.882;4.326;2023-04-01T22:07:25;19.70;;;14.60;;
17794;SDS011;9021;50.882;4.326;2023-04-01T22:18:13;18.02;;;14.95;;
17794;SDS011;9021;50.882;4.326;2023-04-01T22:20:50;19.67;;;15.00;;
17794;SDS011;9021;50.882;4.326;2023-04-01T22:23:32;17.27;;;14.85;;
17794;SDS011;9021;50.882;4.326;2023-04-01T22:26:05;15.60;;;13.93;;
17794;SDS011;9021;50.882;4.326;2023-04-01T22:31:42;16.10;;;14.50;;
17794;SDS011;9021;50.882;4.326;2023-04-01T22:34:36;16.27;;;14.70;;
17794;SDS011;9021;50.882;4.326;2023-04-01T22:37:22;17.58;;;15.90;;
17794;SDS011;9021;50.882;4.326;2023-04-01T22:50:35;17.60;;;15.88;;
17794;SDS011;9021;50.882;4.326;2023-04-01T22:55:46;16.27;;;14.68;;
17794;SDS011;9021;50.882;4.326;2023-04-01T22:58:16;16.05;;;13.88;;
17794;SDS011;9021;50.882;4.326;2023-04-01T23:00:49;15.32;;;13.82;;
17794;SDS011;9021;50.882;4.326;2023-04-01T23:03:22;15.00;;;13.50;;
17794;SDS011;9021;50.882;4.326;2023-04-01T23:06:00;13.57;;;12.27;;
17794;SDS011;9021;50.882;4.326;2023-04-01T23:08:44;13.82;;;12.52;;
17794;SDS011;9021;50.882;4.326;2023-04-01T23:16:50;15.57;;;14.07;;
17794;SDS011;9021;50.882;4.326;2023-04-01T23:19:26;15.48;;;13.98;;
17794;SDS011;9021;50.882;4.326;2023-04-01T23:24:42;17.25;;;15.25;;
17794;SDS011;9021;50.882;4.326;2023-04-01T23:27:19;16.90;;;15.30;;
17794;SDS011;9021;50.882;4.326;2023-04-01T23:36:12;19.55;;;17.55;;
17794;SDS011;9021;50.882;4.326;2023-04-01T23:38:41;22.90;;;20.50;;
17794;SDS011;9021;50.882;4.326;2023-04-01T23:41:08;21.42;;;19.23;;
17794;SDS011;9021;50.882;4.326;2023-04-01T23:43:48;23.23;;;20.80;;
17794;SDS011;9021;50.882;4.326;2023-04-01T23:46:21;24.75;;;22.23;;
17794;SDS011;9021;50.882;4.326;2023-04-01T23:48:47;24.85;;;21.17;;
17794;SDS011;9021;50.882;4.326;2023-04-01T23:51:17;25.02;;;20.63;;
17794;SDS011;9021;50.882;4.326;2023-04-01T23:53:54;20.85;;;18.70;;
17794;SDS011;9021;50.882;4.326;2023-04-01T23:56:41;21.27;;;19.17;;
17794;SDS011;9021;50.882;4.326;2023-04-01T23:59:32;19.70;;;17.73;;
